sensor_id;sensor_type;location;lat;lon;timestamp;temperature;humidity
75489;HTU21D;64069;46.396;48.102;2023-04-03T00:01:04;7.84;79.65
75489;HTU21D;64069;46.396;48.102;2023-04-03T00:03:29;7.83;79.79
75489;HTU21D;64069;46.396;48.102;2023-04-03T00:05:55;7.82;79.69
75489;HTU21D;64069;46.396;48.102;2023-04-03T00:08:21;7.81;79.62
75489;HTU21D;64069;46.396;48.102;2023-04-03T00:10:47;7.81;79.66
75489;HTU21D;64069;46.396;48.102;2023-04-03T00:13:13;7.78;79.66
75489;HTU21D;64069;46.396;48.102;2023-04-03T00:15:40;7.77;79.58
75489;HTU21D;64069;46.396;48.102;2023-04-03T00:18:05;7.78;79.69
75489;HTU21D;64069;46.396;48.102;2023-04-03T00:20:31;7.79;79.62
75489;HTU21D;64069;46.396;48.102;2023-04-03T00:22:57;7.81;79.53
75489;HTU21D;64069;46.396;48.102;2023-04-03T00:25:23;7.79;79.44
75489;HTU21D;64069;46.396;48.102;2023-04-03T00:27:48;7.81;79.37
75489;HTU21D;64069;46.396;48.102;2023-04-03T00:30:15;7.79;79.31
75489;HTU21D;64069;46.396;48.102;2023-04-03T00:32:41;7.78;79.30
75489;HTU21D;64069;46.396;48.102;2023-04-03T00:35:07;7.77;79.25
75489;HTU21D;64069;46.396;48.102;2023-04-03T00:37:33;7.75;79.26
75489;HTU21D;64069;46.396;48.102;2023-04-03T00:39:59;7.74;79.37
75489;HTU21D;64069;46.396;48.102;2023-04-03T00:42:25;7.72;79.45
75489;HTU21D;64069;46.396;48.102;2023-04-03T00:47:23;7.64;79.46
75489;HTU21D;64069;46.396;48.102;2023-04-03T00:49:50;7.62;79.56
75489;HTU21D;64069;46.396;48.102;2023-04-03T00:52:17;7.59;79.57
75489;HTU21D;64069;46.396;48.102;2023-04-03T00:54:43;7.59;79.61
75489;HTU21D;64069;46.396;48.102;2023-04-03T00:57:11;7.57;79.58
75489;HTU21D;64069;46.396;48.102;2023-04-03T00:59:48;7.56;79.54
75489;HTU21D;64069;46.396;48.102;2023-04-03T01:02:15;7.55;79.46
75489;HTU21D;64069;46.396;48.102;2023-04-03T01:04:41;7.55;79.42
75489;HTU21D;64069;46.396;48.102;2023-04-03T01:07:26;7.53;79.40
75489;HTU21D;64069;46.396;48.102;2023-04-03T01:09:56;7.50;79.45
75489;HTU21D;64069;46.396;48.102;2023-04-03T01:12:26;7.49;79.47
75489;HTU21D;64069;46.396;48.102;2023-04-03T01:14:53;7.49;79.44
75489;HTU21D;64069;46.396;48.102;2023-04-03T01:23:20;7.45;79.55
75489;HTU21D;64069;46.396;48.102;2023-04-03T01:25:26;7.47;79.52
75489;HTU21D;64069;46.396;48.102;2023-04-03T01:27:51;7.48;79.40
75489;HTU21D;64069;46.396;48.102;2023-04-03T01:30:18;7.49;79.32
75489;HTU21D;64069;46.396;48.102;2023-04-03T01:32:44;7.52;79.24
75489;HTU21D;64069;46.396;48.102;2023-04-03T01:35:11;7.53;79.22
75489;HTU21D;64069;46.396;48.102;2023-04-03T01:37:37;7.55;79.24
75489;HTU21D;64069;46.396;48.102;2023-04-03T01:40:03;7.56;79.18
75489;HTU21D;64069;46.396;48.102;2023-04-03T01:42:29;7.55;79.20
75489;HTU21D;64069;46.396;48.102;2023-04-03T01:44:55;7.55;79.15
75489;HTU21D;64069;46.396;48.102;2023-04-03T01:47:21;7.59;79.10
75489;HTU21D;64069;46.396;48.102;2023-04-03T01:49:47;7.61;79.03
75489;HTU21D;64069;46.396;48.102;2023-04-03T01:52:13;7.64;78.94
75489;HTU21D;64069;46.396;48.102;2023-04-03T01:54:39;7.68;78.85
75489;HTU21D;64069;46.396;48.102;2023-04-03T01:57:04;7.71;78.82
75489;HTU21D;64069;46.396;48.102;2023-04-03T01:59:30;7.73;78.75
75489;HTU21D;64069;46.396;48.102;2023-04-03T02:01:56;7.77;78.70
75489;HTU21D;64069;46.396;48.102;2023-04-03T02:04:22;7.79;78.63
75489;HTU21D;64069;46.396;48.102;2023-04-03T02:06:48;7.84;78.54
75489;HTU21D;64069;46.396;48.102;2023-04-03T02:09:14;7.88;78.51
75489;HTU21D;64069;46.396;48.102;2023-04-03T02:11:40;7.90;78.53
75489;HTU21D;64069;46.396;48.102;2023-04-03T02:14:05;7.91;78.50
75489;HTU21D;64069;46.396;48.102;2023-04-03T02:16:31;7.93;78.47
75489;HTU21D;64069;46.396;48.102;2023-04-03T02:18:57;7.98;78.41
75489;HTU21D;64069;46.396;48.102;2023-04-03T02:21:23;7.99;78.47
75489;HTU21D;64069;46.396;48.102;2023-04-03T02:23:49;8.01;78.47
75489;HTU21D;64069;46.396;48.102;2023-04-03T02:26:14;8.01;78.46
75489;HTU21D;64069;46.396;48.102;2023-04-03T02:28:41;8.00;78.83
75489;HTU21D;64069;46.396;48.102;2023-04-03T02:31:07;7.93;79.00
75489;HTU21D;64069;46.396;48.102;2023-04-03T02:33:34;7.91;79.04
75489;HTU21D;64069;46.396;48.102;2023-04-03T02:36:06;7.91;79.00
75489;HTU21D;64069;46.396;48.102;2023-04-03T02:38:33;7.93;79.09
75489;HTU21D;64069;46.396;48.102;2023-04-03T02:41:00;7.94;79.24
75489;HTU21D;64069;46.396;48.102;2023-04-03T02:43:25;7.93;79.49
75489;HTU21D;64069;46.396;48.102;2023-04-03T02:45:52;7.91;79.70
75489;HTU21D;64069;46.396;48.102;2023-04-03T02:48:18;7.89;79.91
75489;HTU21D;64069;46.396;48.102;2023-04-03T02:50:44;7.85;80.25
75489;HTU21D;64069;46.396;48.102;2023-04-03T02:53:10;7.81;80.82
75489;HTU21D;64069;46.396;48.102;2023-04-03T02:55:35;7.77;81.02
75489;HTU21D;64069;46.396;48.102;2023-04-03T02:58:01;7.76;81.30
75489;HTU21D;64069;46.396;48.102;2023-04-03T03:00:29;7.76;81.41
75489;HTU21D;64069;46.396;48.102;2023-04-03T03:02:54;7.75;81.63
75489;HTU21D;64069;46.396;48.102;2023-04-03T03:05:20;7.77;81.58
75489;HTU21D;64069;46.396;48.102;2023-04-03T03:07:47;7.79;82.13
75489;HTU21D;64069;46.396;48.102;2023-04-03T03:10:13;7.82;82.37
75489;HTU21D;64069;46.396;48.102;2023-04-03T03:12:39;7.85;83.04
75489;HTU21D;64069;46.396;48.102;2023-04-03T03:15:06;7.84;83.97
75489;HTU21D;64069;46.396;48.102;2023-04-03T03:17:32;7.87;84.47
75489;HTU21D;64069;46.396;48.102;2023-04-03T03:19:58;7.89;84.87
75489;HTU21D;64069;46.396;48.102;2023-04-03T03:22:24;7.93;84.65
75489;HTU21D;64069;46.396;48.102;2023-04-03T03:24:49;7.99;84.52
75489;HTU21D;64069;46.396;48.102;2023-04-03T03:27:15;8.05;84.43
75489;HTU21D;64069;46.396;48.102;2023-04-03T03:29:42;8.12;84.01
75489;HTU21D;64069;46.396;48.102;2023-04-03T03:32:07;8.20;83.49
75489;HTU21D;64069;46.396;48.102;2023-04-03T03:34:33;8.30;83.39
75489;HTU21D;64069;46.396;48.102;2023-04-03T03:36:59;8.37;83.13
75489;HTU21D;64069;46.396;48.102;2023-04-03T03:39:25;8.48;82.96
75489;HTU21D;64069;46.396;48.102;2023-04-03T03:41:51;8.61;82.80
75489;HTU21D;64069;46.396;48.102;2023-04-03T03:44:19;8.91;82.56
75489;HTU21D;64069;46.396;48.102;2023-04-03T03:46:45;9.38;81.71
75489;HTU21D;64069;46.396;48.102;2023-04-03T03:49:11;9.93;80.65
75489;HTU21D;64069;46.396;48.102;2023-04-03T03:51:37;10.45;79.73
75489;HTU21D;64069;46.396;48.102;2023-04-03T03:54:05;10.89;79.19
75489;HTU21D;64069;46.396;48.102;2023-04-03T03:56:31;11.23;78.97
75489;HTU21D;64069;46.396;48.102;2023-04-03T03:58:57;0.00;78.92
75489;HTU21D;64069;46.396;48.102;2023-04-03T04:01:23;11.74;78.66
75489;HTU21D;64069;46.396;48.102;2023-04-03T04:03:50;12.14;78.19
75489;HTU21D;64069;46.396;48.102;2023-04-03T04:06:20;12.37;77.89
75489;HTU21D;64069;46.396;48.102;2023-04-03T04:08:47;12.38;77.63
75489;HTU21D;64069;46.396;48.102;2023-04-03T04:11:14;12.22;77.97
75489;HTU21D;64069;46.396;48.102;2023-04-03T04:13:41;12.25;78.16
75489;HTU21D;64069;46.396;48.102;2023-04-03T04:16:09;12.36;77.96
75489;HTU21D;64069;46.396;48.102;2023-04-03T04:18:35;12.40;77.86
75489;HTU21D;64069;46.396;48.102;2023-04-03T04:21:01;12.51;77.77
75489;HTU21D;64069;46.396;48.102;2023-04-03T04:23:28;12.87;77.37
75489;HTU21D;64069;46.396;48.102;2023-04-03T04:25:54;13.34;76.61
75489;HTU21D;64069;46.396;48.102;2023-04-03T04:28:20;13.65;75.81
75489;HTU21D;64069;46.396;48.102;2023-04-03T04:30:49;13.74;75.30
75489;HTU21D;64069;46.396;48.102;2023-04-03T04:33:16;13.55;75.43
75489;HTU21D;64069;46.396;48.102;2023-04-03T04:35:43;13.71;75.50
75489;HTU21D;64069;46.396;48.102;2023-04-03T04:38:09;13.84;75.22
75489;HTU21D;64069;46.396;48.102;2023-04-03T04:40:36;13.76;74.90
75489;HTU21D;64069;46.396;48.102;2023-04-03T04:43:03;13.45;74.82
75489;HTU21D;64069;46.396;48.102;2023-04-03T04:45:29;13.15;75.48
75489;HTU21D;64069;46.396;48.102;2023-04-03T04:47:55;13.00;75.70
75489;HTU21D;64069;46.396;48.102;2023-04-03T04:50:22;12.78;75.73
75489;HTU21D;64069;46.396;48.102;2023-04-03T04:52:48;12.46;75.65
75489;HTU21D;64069;46.396;48.102;2023-04-03T04:55:14;12.21;76.02
75489;HTU21D;64069;46.396;48.102;2023-04-03T04:57:40;12.02;76.37
75489;HTU21D;64069;46.396;48.102;2023-04-03T05:00:06;11.91;76.59
75489;HTU21D;64069;46.396;48.102;2023-04-03T05:02:32;11.91;76.45
75489;HTU21D;64069;46.396;48.102;2023-04-03T05:04:58;11.89;76.40
75489;HTU21D;64069;46.396;48.102;2023-04-03T05:07:27;11.90;76.39
75489;HTU21D;64069;46.396;48.102;2023-04-03T05:09:53;11.99;76.24
75489;HTU21D;64069;46.396;48.102;2023-04-03T05:12:20;12.06;76.05
75489;HTU21D;64069;46.396;48.102;2023-04-03T05:14:52;11.99;76.02
75489;HTU21D;64069;46.396;48.102;2023-04-03T05:17:18;11.96;76.15
75489;HTU21D;64069;46.396;48.102;2023-04-03T05:19:48;11.96;76.16
75489;HTU21D;64069;46.396;48.102;2023-04-03T05:22:15;11.97;76.20
75489;HTU21D;64069;46.396;48.102;2023-04-03T05:24:40;12.01;76.15
75489;HTU21D;64069;46.396;48.102;2023-04-03T05:27:07;11.99;76.18
75489;HTU21D;64069;46.396;48.102;2023-04-03T05:29:37;12.02;76.18
75489;HTU21D;64069;46.396;48.102;2023-04-03T05:32:04;12.10;76.11
75489;HTU21D;64069;46.396;48.102;2023-04-03T05:34:30;12.03;76.05
75489;HTU21D;64069;46.396;48.102;2023-04-03T05:36:56;12.03;76.02
75489;HTU21D;64069;46.396;48.102;2023-04-03T05:39:22;11.98;76.08
75489;HTU21D;64069;46.396;48.102;2023-04-03T05:41:48;12.01;76.15
75489;HTU21D;64069;46.396;48.102;2023-04-03T05:44:14;12.14;75.98
75489;HTU21D;64069;46.396;48.102;2023-04-03T05:46:41;12.56;75.80
75489;HTU21D;64069;46.396;48.102;2023-04-03T05:49:09;13.29;74.78
75489;HTU21D;64069;46.396;48.102;2023-04-03T05:51:36;13.75;73.48
75489;HTU21D;64069;46.396;48.102;2023-04-03T05:56:43;13.83;73.98
75489;HTU21D;64069;46.396;48.102;2023-04-03T05:59:09;14.00;73.99
75489;HTU21D;64069;46.396;48.102;2023-04-03T06:01:36;14.18;73.84
75489;HTU21D;64069;46.396;48.102;2023-04-03T06:04:02;14.41;73.51
75489;HTU21D;64069;46.396;48.102;2023-04-03T06:06:45;14.62;73.23
75489;HTU21D;64069;46.396;48.102;2023-04-03T06:09:12;14.79;72.60
75489;HTU21D;64069;46.396;48.102;2023-04-03T06:11:38;15.06;72.23
75489;HTU21D;64069;46.396;48.102;2023-04-03T06:14:04;15.44;72.11
75489;HTU21D;64069;46.396;48.102;2023-04-03T06:16:30;15.71;71.17
75489;HTU21D;64069;46.396;48.102;2023-04-03T06:18:56;16.03;70.93
75489;HTU21D;64069;46.396;48.102;2023-04-03T06:21:23;0.00;70.13
75489;HTU21D;64069;46.396;48.102;2023-04-03T06:23:48;15.77;69.90
75489;HTU21D;64069;46.396;48.102;2023-04-03T06:26:14;15.68;70.55
75489;HTU21D;64069;46.396;48.102;2023-04-03T06:28:40;0.00;70.49
75489;HTU21D;64069;46.396;48.102;2023-04-03T06:31:05;15.52;70.74
75489;HTU21D;64069;46.396;48.102;2023-04-03T06:33:31;15.61;70.71
75489;HTU21D;64069;46.396;48.102;2023-04-03T06:35:58;15.76;70.59
75489;HTU21D;64069;46.396;48.102;2023-04-03T06:38:23;15.83;70.45
75489;HTU21D;64069;46.396;48.102;2023-04-03T06:40:49;15.98;70.34
75489;HTU21D;64069;46.396;48.102;2023-04-03T06:43:15;16.08;70.25
75489;HTU21D;64069;46.396;48.102;2023-04-03T06:45:41;16.12;70.11
75489;HTU21D;64069;46.396;48.102;2023-04-03T06:48:07;15.91;70.28
75489;HTU21D;64069;46.396;48.102;2023-04-03T06:50:32;15.88;70.58
75489;HTU21D;64069;46.396;48.102;2023-04-03T06:52:59;15.98;70.68
75489;HTU21D;64069;46.396;48.102;2023-04-03T06:55:26;16.18;70.48
75489;HTU21D;64069;46.396;48.102;2023-04-03T06:57:52;16.39;70.16
75489;HTU21D;64069;46.396;48.102;2023-04-03T07:00:17;16.49;69.29
75489;HTU21D;64069;46.396;48.102;2023-04-03T07:02:43;16.56;68.66
75489;HTU21D;64069;46.396;48.102;2023-04-03T07:05:09;16.55;68.59
75489;HTU21D;64069;46.396;48.102;2023-04-03T07:07:35;16.39;67.81
75489;HTU21D;64069;46.396;48.102;2023-04-03T07:10:01;16.44;68.30
75489;HTU21D;64069;46.396;48.102;2023-04-03T07:12:27;16.59;68.50
75489;HTU21D;64069;46.396;48.102;2023-04-03T07:14:53;16.66;68.42
75489;HTU21D;64069;46.396;48.102;2023-04-03T07:17:18;16.64;68.19
75489;HTU21D;64069;46.396;48.102;2023-04-03T07:19:44;16.61;68.35
75489;HTU21D;64069;46.396;48.102;2023-04-03T07:22:10;16.71;68.26
75489;HTU21D;64069;46.396;48.102;2023-04-03T07:24:36;16.81;67.80
75489;HTU21D;64069;46.396;48.102;2023-04-03T07:27:05;16.87;68.02
75489;HTU21D;64069;46.396;48.102;2023-04-03T07:29:31;16.98;67.87
75489;HTU21D;64069;46.396;48.102;2023-04-03T07:31:57;16.95;67.57
75489;HTU21D;64069;46.396;48.102;2023-04-03T07:34:22;16.96;67.56
75489;HTU21D;64069;46.396;48.102;2023-04-03T07:36:48;16.93;67.40
75489;HTU21D;64069;46.396;48.102;2023-04-03T07:39:14;16.88;67.46
75489;HTU21D;64069;46.396;48.102;2023-04-03T07:41:43;16.92;67.46
75489;HTU21D;64069;46.396;48.102;2023-04-03T07:44:09;16.89;67.48
75489;HTU21D;64069;46.396;48.102;2023-04-03T07:46:35;16.89;67.43
75489;HTU21D;64069;46.396;48.102;2023-04-03T07:49:01;17.01;67.23
75489;HTU21D;64069;46.396;48.102;2023-04-03T07:51:27;17.13;67.16
75489;HTU21D;64069;46.396;48.102;2023-04-03T07:53:53;17.22;66.94
75489;HTU21D;64069;46.396;48.102;2023-04-03T07:56:19;17.26;66.75
75489;HTU21D;64069;46.396;48.102;2023-04-03T07:58:46;17.46;66.71
75489;HTU21D;64069;46.396;48.102;2023-04-03T08:01:12;17.68;66.31
75489;HTU21D;64069;46.396;48.102;2023-04-03T08:03:38;17.65;65.54
75489;HTU21D;64069;46.396;48.102;2023-04-03T08:06:04;17.61;65.75
75489;HTU21D;64069;46.396;48.102;2023-04-03T08:08:30;17.56;65.44
75489;HTU21D;64069;46.396;48.102;2023-04-03T08:10:58;17.61;65.70
75489;HTU21D;64069;46.396;48.102;2023-04-03T08:13:24;17.72;65.52
75489;HTU21D;64069;46.396;48.102;2023-04-03T08:15:50;17.75;65.17
75489;HTU21D;64069;46.396;48.102;2023-04-03T08:18:16;17.70;65.27
75489;HTU21D;64069;46.396;48.102;2023-04-03T08:20:42;17.64;64.01
75489;HTU21D;64069;46.396;48.102;2023-04-03T08:23:09;17.33;64.05
75489;HTU21D;64069;46.396;48.102;2023-04-03T08:25:41;0.00;64.76
75489;HTU21D;64069;46.396;48.102;2023-04-03T08:28:07;17.60;64.43
75489;HTU21D;64069;46.396;48.102;2023-04-03T08:30:33;17.75;64.20
75489;HTU21D;64069;46.396;48.102;2023-04-03T08:33:02;17.88;64.01
75489;HTU21D;64069;46.396;48.102;2023-04-03T08:35:28;17.97;63.91
75489;HTU21D;64069;46.396;48.102;2023-04-03T08:37:53;17.97;63.71
75489;HTU21D;64069;46.396;48.102;2023-04-03T08:40:19;18.00;63.84
75489;HTU21D;64069;46.396;48.102;2023-04-03T08:42:48;18.09;63.63
75489;HTU21D;64069;46.396;48.102;2023-04-03T08:45:21;18.08;63.62
75489;HTU21D;64069;46.396;48.102;2023-04-03T08:50:20;18.26;63.51
75489;HTU21D;64069;46.396;48.102;2023-04-03T08:52:48;18.33;63.47
75489;HTU21D;64069;46.396;48.102;2023-04-03T08:55:28;18.32;63.26
75489;HTU21D;64069;46.396;48.102;2023-04-03T08:57:59;18.25;63.41
75489;HTU21D;64069;46.396;48.102;2023-04-03T09:00:27;18.34;63.21
75489;HTU21D;64069;46.396;48.102;2023-04-03T09:02:54;18.39;63.17
75489;HTU21D;64069;46.396;48.102;2023-04-03T09:05:24;18.59;62.82
75489;HTU21D;64069;46.396;48.102;2023-04-03T09:08:01;18.66;62.47
75489;HTU21D;64069;46.396;48.102;2023-04-03T09:10:32;18.66;62.35
75489;HTU21D;64069;46.396;48.102;2023-04-03T09:15:43;18.53;62.42
75489;HTU21D;64069;46.396;48.102;2023-04-03T09:26:01;18.58;62.15
75489;HTU21D;64069;46.396;48.102;2023-04-03T09:28:29;18.62;62.15
75489;HTU21D;64069;46.396;48.102;2023-04-03T09:31:00;18.62;61.89
75489;HTU21D;64069;46.396;48.102;2023-04-03T09:33:26;18.46;61.87
75489;HTU21D;64069;46.396;48.102;2023-04-03T09:35:52;18.48;62.02
75489;HTU21D;64069;46.396;48.102;2023-04-03T09:38:19;18.51;61.81
75489;HTU21D;64069;46.396;48.102;2023-04-03T09:40:50;18.43;61.73
75489;HTU21D;64069;46.396;48.102;2023-04-03T09:45:43;18.40;61.44
75489;HTU21D;64069;46.396;48.102;2023-04-03T09:50:38;18.33;61.41
75489;HTU21D;64069;46.396;48.102;2023-04-03T09:53:06;18.41;61.30
75489;HTU21D;64069;46.396;48.102;2023-04-03T09:55:33;18.52;61.25
75489;HTU21D;64069;46.396;48.102;2023-04-03T09:58:20;18.54;61.29
75489;HTU21D;64069;46.396;48.102;2023-04-03T10:00:54;18.63;61.08
75489;HTU21D;64069;46.396;48.102;2023-04-03T10:05:55;18.69;60.98
75489;HTU21D;64069;46.396;48.102;2023-04-03T10:08:33;18.61;60.59
75489;HTU21D;64069;46.396;48.102;2023-04-03T10:11:09;18.35;60.83
75489;HTU21D;64069;46.396;48.102;2023-04-03T10:13:35;18.29;61.05
75489;HTU21D;64069;46.396;48.102;2023-04-03T10:20:52;18.42;60.55
75489;HTU21D;64069;46.396;48.102;2023-04-03T10:24:20;18.55;60.30
75489;HTU21D;64069;46.396;48.102;2023-04-03T10:26:26;18.50;60.28
75489;HTU21D;64069;46.396;48.102;2023-04-03T10:34:05;18.17;59.88
75489;HTU21D;64069;46.396;48.102;2023-04-03T10:36:36;18.13;59.81
75489;HTU21D;64069;46.396;48.102;2023-04-03T10:42:06;18.08;59.17
75489;HTU21D;64069;46.396;48.102;2023-04-03T10:44:41;17.80;59.38
75489;HTU21D;64069;46.396;48.102;2023-04-03T10:47:22;17.96;59.80
75489;HTU21D;64069;46.396;48.102;2023-04-03T10:57:11;18.80;58.23
75489;HTU21D;64069;46.396;48.102;2023-04-03T11:02:25;18.82;58.16
75489;HTU21D;64069;46.396;48.102;2023-04-03T11:04:57;18.77;58.38
75489;HTU21D;64069;46.396;48.102;2023-04-03T11:07:36;18.84;58.36
75489;HTU21D;64069;46.396;48.102;2023-04-03T11:12:48;19.05;58.06
75489;HTU21D;64069;46.396;48.102;2023-04-03T11:15:17;18.93;57.51
75489;HTU21D;64069;46.396;48.102;2023-04-03T11:18:02;18.62;57.76
75489;HTU21D;64069;46.396;48.102;2023-04-03T11:20:28;18.39;58.32
75489;HTU21D;64069;46.396;48.102;2023-04-03T11:23:00;0.00;58.46
75489;HTU21D;64069;46.396;48.102;2023-04-03T11:25:27;18.41;58.43
75489;HTU21D;64069;46.396;48.102;2023-04-03T11:27:55;18.48;58.40
75489;HTU21D;64069;46.396;48.102;2023-04-03T11:30:27;18.39;58.04
75489;HTU21D;64069;46.396;48.102;2023-04-03T11:35:20;18.24;58.21
75489;HTU21D;64069;46.396;48.102;2023-04-03T11:37:51;18.17;58.34
75489;HTU21D;64069;46.396;48.102;2023-04-03T11:42:52;18.03;58.56
75489;HTU21D;64069;46.396;48.102;2023-04-03T11:45:24;18.09;58.42
75489;HTU21D;64069;46.396;48.102;2023-04-03T12:05:48;18.06;57.55
75489;HTU21D;64069;46.396;48.102;2023-04-03T12:16:06;18.25;57.03
75489;HTU21D;64069;46.396;48.102;2023-04-03T12:18:43;18.20;57.10
75489;HTU21D;64069;46.396;48.102;2023-04-03T12:21:09;18.21;57.24
75489;HTU21D;64069;46.396;48.102;2023-04-03T12:23:36;18.17;56.92
75489;HTU21D;64069;46.396;48.102;2023-04-03T12:26:20;18.12;56.88
75489;HTU21D;64069;46.396;48.102;2023-04-03T12:28:47;17.94;56.77
75489;HTU21D;64069;46.396;48.102;2023-04-03T12:31:13;17.89;57.23
75489;HTU21D;64069;46.396;48.102;2023-04-03T12:33:46;17.83;57.28
75489;HTU21D;64069;46.396;48.102;2023-04-03T12:36:18;17.81;57.39
75489;HTU21D;64069;46.396;48.102;2023-04-03T12:39:42;17.81;57.27
75489;HTU21D;64069;46.396;48.102;2023-04-03T12:41:44;17.68;57.25
75489;HTU21D;64069;46.396;48.102;2023-04-03T12:46:57;17.51;57.56
75489;HTU21D;64069;46.396;48.102;2023-04-03T12:51:57;17.31;57.05
75489;HTU21D;64069;46.396;48.102;2023-04-03T12:54:31;0.00;57.46
75489;HTU21D;64069;46.396;48.102;2023-04-03T12:57:17;17.17;57.58
75489;HTU21D;64069;46.396;48.102;2023-04-03T12:59:43;17.05;57.90
75489;HTU21D;64069;46.396;48.102;2023-04-03T13:04:43;16.76;57.49
75489;HTU21D;64069;46.396;48.102;2023-04-03T13:07:20;16.71;57.77
75489;HTU21D;64069;46.396;48.102;2023-04-03T13:09:54;16.58;57.45
75489;HTU21D;64069;46.396;48.102;2023-04-03T13:12:20;16.43;57.55
75489;HTU21D;64069;46.396;48.102;2023-04-03T13:14:53;16.33;57.76
75489;HTU21D;64069;46.396;48.102;2023-04-03T13:17:19;16.25;57.95
75489;HTU21D;64069;46.396;48.102;2023-04-03T13:19:46;16.21;58.03
75489;HTU21D;64069;46.396;48.102;2023-04-03T13:22:33;16.17;57.99
75489;HTU21D;64069;46.396;48.102;2023-04-03T13:25:09;16.16;58.07
75489;HTU21D;64069;46.396;48.102;2023-04-03T13:27:36;16.12;57.98
75489;HTU21D;64069;46.396;48.102;2023-04-03T13:30:04;0.00;58.04
75489;HTU21D;64069;46.396;48.102;2023-04-03T13:32:30;16.06;58.14
75489;HTU21D;64069;46.396;48.102;2023-04-03T13:34:57;16.02;58.19
75489;HTU21D;64069;46.396;48.102;2023-04-03T13:37:24;16.02;58.23
75489;HTU21D;64069;46.396;48.102;2023-04-03T13:40:02;15.97;58.26
75489;HTU21D;64069;46.396;48.102;2023-04-03T13:42:30;15.90;58.51
75489;HTU21D;64069;46.396;48.102;2023-04-03T13:47:41;15.77;58.78
75489;HTU21D;64069;46.396;48.102;2023-04-03T13:50:16;15.73;58.95
75489;HTU21D;64069;46.396;48.102;2023-04-03T13:52:47;15.66;59.04
75489;HTU21D;64069;46.396;48.102;2023-04-03T13:58:20;15.47;59.21
75489;HTU21D;64069;46.396;48.102;2023-04-03T14:03:00;15.25;59.69
75489;HTU21D;64069;46.396;48.102;2023-04-03T14:05:26;15.15;59.90
75489;HTU21D;64069;46.396;48.102;2023-04-03T14:07:53;15.04;59.97
75489;HTU21D;64069;46.396;48.102;2023-04-03T14:10:20;14.91;60.21
75489;HTU21D;64069;46.396;48.102;2023-04-03T14:12:46;14.79;60.41
75489;HTU21D;64069;46.396;48.102;2023-04-03T14:15:17;14.68;60.58
75489;HTU21D;64069;46.396;48.102;2023-04-03T14:17:43;14.58;60.78
75489;HTU21D;64069;46.396;48.102;2023-04-03T14:20:17;14.48;60.88
75489;HTU21D;64069;46.396;48.102;2023-04-03T14:22:42;14.39;61.02
75489;HTU21D;64069;46.396;48.102;2023-04-03T14:25:11;14.30;61.13
75489;HTU21D;64069;46.396;48.102;2023-04-03T14:27:47;14.21;61.24
75489;HTU21D;64069;46.396;48.102;2023-04-03T14:30:19;14.12;61.36
75489;HTU21D;64069;46.396;48.102;2023-04-03T14:32:46;14.04;61.41
75489;HTU21D;64069;46.396;48.102;2023-04-03T14:35:12;13.96;61.48
75489;HTU21D;64069;46.396;48.102;2023-04-03T14:37:38;13.90;61.56
75489;HTU21D;64069;46.396;48.102;2023-04-03T14:40:04;13.81;61.57
75489;HTU21D;64069;46.396;48.102;2023-04-03T14:42:32;13.75;61.63
75489;HTU21D;64069;46.396;48.102;2023-04-03T14:44:59;13.66;61.68
75489;HTU21D;64069;46.396;48.102;2023-04-03T14:47:26;13.58;61.76
75489;HTU21D;64069;46.396;48.102;2023-04-03T14:49:52;13.49;61.92
75489;HTU21D;64069;46.396;48.102;2023-04-03T14:52:32;13.41;61.99
75489;HTU21D;64069;46.396;48.102;2023-04-03T14:54:58;13.33;62.05
75489;HTU21D;64069;46.396;48.102;2023-04-03T14:57:27;13.26;62.15
75489;HTU21D;64069;46.396;48.102;2023-04-03T14:59:53;13.19;62.26
75489;HTU21D;64069;46.396;48.102;2023-04-03T15:02:26;13.09;62.30
75489;HTU21D;64069;46.396;48.102;2023-04-03T15:04:53;13.00;62.51
75489;HTU21D;64069;46.396;48.102;2023-04-03T15:07:23;12.91;62.73
75489;HTU21D;64069;46.396;48.102;2023-04-03T15:09:49;12.80;62.84
75489;HTU21D;64069;46.396;48.102;2023-04-03T15:12:19;12.73;63.02
75489;HTU21D;64069;46.396;48.102;2023-04-03T15:14:45;12.62;63.19
75489;HTU21D;64069;46.396;48.102;2023-04-03T15:17:13;12.53;63.42
75489;HTU21D;64069;46.396;48.102;2023-04-03T15:19:40;12.42;63.48
75489;HTU21D;64069;46.396;48.102;2023-04-03T15:22:06;12.32;63.76
75489;HTU21D;64069;46.396;48.102;2023-04-03T15:24:32;12.22;63.95
75489;HTU21D;64069;46.396;48.102;2023-04-03T15:27:00;12.15;64.12
75489;HTU21D;64069;46.396;48.102;2023-04-03T15:29:26;12.05;64.31
75489;HTU21D;64069;46.396;48.102;2023-04-03T15:31:52;11.99;64.54
75489;HTU21D;64069;46.396;48.102;2023-04-03T15:34:21;11.91;64.53
75489;HTU21D;64069;46.396;48.102;2023-04-03T15:36:47;11.83;64.98
75489;HTU21D;64069;46.396;48.102;2023-04-03T15:39:13;11.76;65.03
75489;HTU21D;64069;46.396;48.102;2023-04-03T15:41:39;11.69;65.00
75489;HTU21D;64069;46.396;48.102;2023-04-03T15:44:05;11.61;65.13
75489;HTU21D;64069;46.396;48.102;2023-04-03T15:46:31;11.55;65.24
75489;HTU21D;64069;46.396;48.102;2023-04-03T15:48:59;11.48;65.68
75489;HTU21D;64069;46.396;48.102;2023-04-03T15:51:25;11.41;65.49
75489;HTU21D;64069;46.396;48.102;2023-04-03T15:53:50;11.33;65.73
75489;HTU21D;64069;46.396;48.102;2023-04-03T15:56:16;11.28;66.17
75489;HTU21D;64069;46.396;48.102;2023-04-03T15:58:42;11.24;66.33
75489;HTU21D;64069;46.396;48.102;2023-04-03T16:01:09;11.18;67.01
75489;HTU21D;64069;46.396;48.102;2023-04-03T16:03:35;11.14;67.23
75489;HTU21D;64069;46.396;48.102;2023-04-03T16:06:04;11.12;67.59
75489;HTU21D;64069;46.396;48.102;2023-04-03T16:08:30;11.07;68.07
75489;HTU21D;64069;46.396;48.102;2023-04-03T16:10:56;11.01;67.94
75489;HTU21D;64069;46.396;48.102;2023-04-03T16:13:25;10.97;68.58
75489;HTU21D;64069;46.396;48.102;2023-04-03T16:15:51;10.92;68.94
75489;HTU21D;64069;46.396;48.102;2023-04-03T16:18:21;10.87;69.06
75489;HTU21D;64069;46.396;48.102;2023-04-03T16:20:46;10.84;69.14
75489;HTU21D;64069;46.396;48.102;2023-04-03T16:23:12;10.81;69.98
75489;HTU21D;64069;46.396;48.102;2023-04-03T16:25:38;10.80;70.65
75489;HTU21D;64069;46.396;48.102;2023-04-03T16:28:04;10.78;71.25
75489;HTU21D;64069;46.396;48.102;2023-04-03T16:30:34;10.75;71.67
75489;HTU21D;64069;46.396;48.102;2023-04-03T16:32:59;10.70;71.44
75489;HTU21D;64069;46.396;48.102;2023-04-03T16:35:25;10.66;72.05
75489;HTU21D;64069;46.396;48.102;2023-04-03T16:37:51;10.59;72.06
75489;HTU21D;64069;46.396;48.102;2023-04-03T16:40:17;10.54;72.62
75489;HTU21D;64069;46.396;48.102;2023-04-03T16:42:42;10.48;72.15
75489;HTU21D;64069;46.396;48.102;2023-04-03T16:45:08;10.40;72.51
75489;HTU21D;64069;46.396;48.102;2023-04-03T16:47:37;10.36;72.98
75489;HTU21D;64069;46.396;48.102;2023-04-03T16:50:03;10.31;73.15
75489;HTU21D;64069;46.396;48.102;2023-04-03T16:52:29;10.27;73.35